createdAt,value
2018-08-09T00:01:27.542Z,23.47
2018-08-09T00:03:56.147Z,23.46
2018-08-09T00:06:24.766Z,23.54
2018-08-09T00:08:53.407Z,23.62
2018-08-09T00:11:22.070Z,23.57
2018-08-09T00:13:50.747Z,23.51
2018-08-09T00:16:19.407Z,23.53
2018-08-09T00:18:48.122Z,23.35
2018-08-09T00:21:16.836Z,23.54
2018-08-09T00:23:45.487Z,23.49
2018-08-09T00:26:14.172Z,23.61
2018-08-09T00:28:42.856Z,23.46
2018-08-09T00:31:11.520Z,23.31
2018-08-09T00:33:40.207Z,23.30
2018-08-09T00:36:09.042Z,23.41
2018-08-09T00:38:37.734Z,23.38
2018-08-09T00:41:06.779Z,23.30
2018-08-09T00:43:35.484Z,23.28
2018-08-09T00:46:04.184Z,23.17
2018-08-09T00:48:32.960Z,23.16
2018-08-09T00:51:01.596Z,23.17
2018-08-09T00:53:30.274Z,23.12
2018-08-09T00:55:58.911Z,23.11
2018-08-09T00:58:27.563Z,23.17
2018-08-09T01:00:56.522Z,23.23
2018-08-09T01:03:25.158Z,23.10
2018-08-09T01:05:53.839Z,23.12
2018-08-09T01:08:22.544Z,23.09
2018-08-09T01:10:51.966Z,23.06
2018-08-09T01:13:20.644Z,23.00
2018-08-09T01:15:49.319Z,23.10
2018-08-09T01:18:17.977Z,23.12
2018-08-09T01:20:46.672Z,23.10
2018-08-09T01:23:15.400Z,23.09
2018-08-09T01:25:44.132Z,22.80
2018-08-09T01:28:12.828Z,22.87
2018-08-09T01:30:41.519Z,22.86
2018-08-09T01:33:10.200Z,22.99
2018-08-09T01:35:39.018Z,23.01
2018-08-09T01:38:07.704Z,22.90
2018-08-09T01:40:36.340Z,22.80
2018-08-09T01:43:16.569Z,22.67
2018-08-09T01:45:45.286Z,22.72
2018-08-09T01:48:13.950Z,22.65
2018-08-09T01:50:42.603Z,22.86
2018-08-09T01:53:11.281Z,22.84
2018-08-09T01:55:39.898Z,22.88
2018-08-09T01:58:08.573Z,22.84
2018-08-09T02:00:37.241Z,22.84
2018-08-09T02:03:06.176Z,22.80
2018-08-09T02:05:34.820Z,22.70
2018-08-09T02:08:03.496Z,22.80
2018-08-09T02:10:32.143Z,22.84
2018-08-09T02:13:00.775Z,22.77
2018-08-09T02:15:29.446Z,22.87
2018-08-09T02:17:58.215Z,23.00
2018-08-09T02:20:26.846Z,22.85
2018-08-09T02:22:55.492Z,22.76
2018-08-09T02:25:24.116Z,22.75
2018-08-09T02:27:52.771Z,22.68
2018-08-09T02:30:21.425Z,22.68
2018-08-09T02:32:50.108Z,22.62
2018-08-09T02:35:18.737Z,22.69
2018-08-09T02:37:47.414Z,22.77
2018-08-09T02:40:16.088Z,22.84
2018-08-09T02:42:44.705Z,22.61
2018-08-09T02:45:14.000Z,22.52
2018-08-09T02:47:42.641Z,22.52
2018-08-09T02:50:11.455Z,22.44
2018-08-09T02:52:40.209Z,22.32
2018-08-09T02:55:08.918Z,22.27
2018-08-09T02:57:37.563Z,22.33
2018-08-09T03:00:06.782Z,22.34
2018-08-09T03:02:35.701Z,22.22
2018-08-09T03:05:04.680Z,22.05
2018-08-09T03:07:33.371Z,21.99
2018-08-09T03:10:02.041Z,22.04
2018-08-09T03:12:30.741Z,22.11
2018-08-09T03:14:59.373Z,22.22
2018-08-09T03:17:28.057Z,22.31
2018-08-09T03:19:56.708Z,22.32
2018-08-09T03:22:25.342Z,22.17
2018-08-09T03:24:53.975Z,22.11
2018-08-09T03:27:22.623Z,22.23
2018-08-09T03:29:51.257Z,22.14
2018-08-09T03:32:19.900Z,22.27
2018-08-09T03:34:48.539Z,22.24
2018-08-09T03:37:17.220Z,22.14
2018-08-09T03:39:45.878Z,22.13
2018-08-09T03:42:14.561Z,22.32
2018-08-09T03:44:43.305Z,22.29
2018-08-09T03:47:12.004Z,22.36
2018-08-09T03:49:41.368Z,22.23
2018-08-09T03:52:10.764Z,22.39
2018-08-09T03:54:39.577Z,22.33
2018-08-09T03:57:08.297Z,22.23
2018-08-09T03:59:37.061Z,22.06
2018-08-09T04:02:05.857Z,22.12
2018-08-09T04:04:34.544Z,22.03
2018-08-09T04:07:03.274Z,22.18
2018-08-09T04:09:31.920Z,22.03
2018-08-09T04:12:00.661Z,22.11
2018-08-09T04:14:29.251Z,22.10
2018-08-09T04:16:57.919Z,22.11
2018-08-09T04:19:26.591Z,22.19
2018-08-09T04:21:55.316Z,22.10
2018-08-09T04:24:24.088Z,22.06
2018-08-09T04:26:52.797Z,22.21
2018-08-09T04:29:21.520Z,22.34
2018-08-09T04:31:50.715Z,22.25
2018-08-09T04:34:20.175Z,22.26
2018-08-09T04:36:51.422Z,22.43
2018-08-09T04:39:20.270Z,22.53
2018-08-09T04:41:48.905Z,22.50
2018-08-09T04:44:17.613Z,22.44
2018-08-09T04:46:46.303Z,22.54
2018-08-09T04:49:15.028Z,22.60
2018-08-09T04:51:43.615Z,22.65
2018-08-09T04:54:12.256Z,22.61
2018-08-09T04:56:40.928Z,22.61
2018-08-09T04:59:09.678Z,22.78
2018-08-09T05:01:38.384Z,22.86
2018-08-09T05:04:07.256Z,22.85
2018-08-09T05:06:35.920Z,22.90
2018-08-09T05:09:07.096Z,22.91
2018-08-09T05:11:35.805Z,22.88
2018-08-09T05:14:04.448Z,23.02
2018-08-09T05:16:33.147Z,23.07
2018-08-09T05:19:01.965Z,23.11
2018-08-09T05:21:30.595Z,23.05
2018-08-09T05:23:59.399Z,23.12
2018-08-09T05:26:28.110Z,22.97
2018-08-09T05:28:56.750Z,23.18
2018-08-09T05:31:25.447Z,23.25
2018-08-09T05:33:54.166Z,23.39
2018-08-09T05:36:22.835Z,23.34
2018-08-09T05:38:51.557Z,23.21
2018-08-09T05:41:20.316Z,23.17
2018-08-09T05:43:49.021Z,23.28
2018-08-09T05:46:17.740Z,23.22
2018-08-09T05:48:46.392Z,23.21
2018-08-09T05:51:15.730Z,23.37
2018-08-09T05:53:44.973Z,23.39
2018-08-09T05:56:13.756Z,23.44
2018-08-09T05:58:43.166Z,23.51
2018-08-09T06:01:11.913Z,23.43
2018-08-09T06:03:40.582Z,23.53
2018-08-09T06:06:09.315Z,23.52
2018-08-09T06:08:38.806Z,23.79
2018-08-09T06:11:07.551Z,23.75
2018-08-09T06:13:36.269Z,23.71
2018-08-09T06:16:05.142Z,23.83
2018-08-09T06:18:33.877Z,23.88
2018-08-09T06:21:02.700Z,24.10
2018-08-09T06:23:31.400Z,23.99
2018-08-09T06:26:00.064Z,24.04
2018-08-09T06:28:28.736Z,24.48
2018-08-09T06:30:57.381Z,24.31
2018-08-09T06:33:26.317Z,24.27
2018-08-09T06:35:54.918Z,24.16
2018-08-09T06:38:23.618Z,24.23
2018-08-09T06:40:52.376Z,24.53
2018-08-09T06:43:21.033Z,24.72
2018-08-09T06:45:49.737Z,24.93
2018-08-09T06:48:18.773Z,24.95
2018-08-09T06:50:47.715Z,24.94
2018-08-09T06:53:16.415Z,25.10
2018-08-09T06:55:45.138Z,25.16
2018-08-09T06:58:13.876Z,24.90
2018-08-09T07:00:43.012Z,25.04
2018-08-09T07:03:12.200Z,24.90
2018-08-09T07:05:40.897Z,25.31
2018-08-09T07:08:09.629Z,25.49
2018-08-09T07:10:38.324Z,25.72
2018-08-09T07:13:07.057Z,25.50
2018-08-09T07:15:35.728Z,25.96
2018-08-09T07:18:04.940Z,26.43
2018-08-09T07:20:33.739Z,26.78
2018-08-09T07:23:02.448Z,26.49
2018-08-09T07:25:31.214Z,26.24
2018-08-09T07:27:59.945Z,26.66
2018-08-09T07:30:28.611Z,26.79
2018-08-09T07:32:57.335Z,26.84
2018-08-09T07:35:26.658Z,26.92
2018-08-09T07:37:55.344Z,26.92
2018-08-09T07:40:24.065Z,27.23
2018-08-09T07:42:52.781Z,27.72
2018-08-09T07:45:21.437Z,27.98
2018-08-09T07:47:50.125Z,27.89
2018-08-09T07:50:18.820Z,27.80
2018-08-09T07:52:47.460Z,27.46
2018-08-09T07:55:16.140Z,27.83
2018-08-09T07:57:44.864Z,28.08
2018-08-09T08:00:13.592Z,28.31
2018-08-09T08:02:42.513Z,28.60
2018-08-09T08:05:11.236Z,28.86
2018-08-09T08:07:39.920Z,29.39
2018-08-09T08:10:09.878Z,29.35
2018-08-09T08:12:38.587Z,29.31
2018-08-09T08:15:08.164Z,29.16
2018-08-09T08:17:37.190Z,29.12
2018-08-09T08:20:06.038Z,28.95
2018-08-09T08:22:34.924Z,29.01
2018-08-09T08:25:03.730Z,28.91
2018-08-09T08:27:32.568Z,29.67
2018-08-09T08:30:02.013Z,29.77
2018-08-09T08:32:30.717Z,29.70
2018-08-09T08:34:59.462Z,29.86
2018-08-09T08:37:28.248Z,29.68
2018-08-09T08:39:56.953Z,30.26
2018-08-09T08:42:25.604Z,30.06
2018-08-09T08:44:54.399Z,30.27
2018-08-09T08:47:23.511Z,30.40
2018-08-09T08:49:52.209Z,31.04
2018-08-09T08:52:20.932Z,30.71
2018-08-09T08:54:49.996Z,30.92
2018-08-09T08:57:18.645Z,30.52
2018-08-09T08:59:47.369Z,30.25
2018-08-09T09:02:16.038Z,30.09
2018-08-09T09:04:44.700Z,29.94
2018-08-09T09:07:13.382Z,30.21
2018-08-09T09:09:41.980Z,30.18
2018-08-09T09:12:10.677Z,29.97
2018-08-09T09:14:39.302Z,30.28
2018-08-09T09:17:07.956Z,30.32
2018-08-09T09:19:36.653Z,30.68
2018-08-09T09:22:05.344Z,31.31
2018-08-09T09:24:34.104Z,30.97
2018-08-09T09:27:03.156Z,30.72
2018-08-09T09:29:31.788Z,30.90
2018-08-09T09:32:00.460Z,30.74
2018-08-09T09:34:29.132Z,30.66
2018-08-09T09:36:57.818Z,30.74
2018-08-09T09:39:26.523Z,31.28
2018-08-09T09:41:55.187Z,31.69
2018-08-09T09:44:23.852Z,31.69
2018-08-09T09:46:52.492Z,32.34
2018-08-09T09:49:21.149Z,33.07
2018-08-09T09:51:49.780Z,33.35
2018-08-09T09:54:18.447Z,33.09
2018-08-09T09:56:47.158Z,33.64
2018-08-09T09:59:15.819Z,33.08
2018-08-09T10:01:44.715Z,32.86
2018-08-09T10:04:13.392Z,32.55
2018-08-09T10:06:42.601Z,32.72
2018-08-09T10:09:12.487Z,33.43
2018-08-09T10:11:41.593Z,32.71
2018-08-09T10:14:10.313Z,31.80
2018-08-09T10:16:38.965Z,32.86
2018-08-09T10:19:07.620Z,33.17
2018-08-09T10:21:36.369Z,33.25
2018-08-09T10:24:05.223Z,34.12
2018-08-09T10:26:33.919Z,33.74
2018-08-09T10:29:02.604Z,33.06
2018-08-09T10:31:31.263Z,33.51
2018-08-09T10:34:00.080Z,32.85
2018-08-09T10:36:28.815Z,32.70
2018-08-09T10:38:57.478Z,33.50
2018-08-09T10:41:26.220Z,34.03
2018-08-09T10:43:54.966Z,34.16
2018-08-09T10:46:23.688Z,34.11
2018-08-09T10:48:52.370Z,33.59
2018-08-09T10:51:21.207Z,33.61
2018-08-09T10:53:49.919Z,33.73
2018-08-09T10:56:18.868Z,34.44
2018-08-09T10:58:47.556Z,34.48
2018-08-09T11:01:16.226Z,34.66
2018-08-09T11:03:44.880Z,35.35
2018-08-09T11:06:13.547Z,35.43
2018-08-09T11:08:42.392Z,35.07
2018-08-09T11:11:12.620Z,35.07
2018-08-09T11:13:43.379Z,35.21
2018-08-09T11:16:13.075Z,34.86
2018-08-09T11:18:42.338Z,35.55
2018-08-09T11:21:11.048Z,35.90
2018-08-09T11:23:39.821Z,36.02
2018-08-09T11:26:08.493Z,36.12
2018-08-09T11:28:37.264Z,35.97
2018-08-09T11:31:05.929Z,35.50
2018-08-09T11:33:34.603Z,35.26
2018-08-09T11:36:03.390Z,34.88
2018-08-09T11:38:32.112Z,34.97
2018-08-09T11:41:00.850Z,35.55
2018-08-09T11:43:29.634Z,35.89
2018-08-09T11:45:58.318Z,35.63
2018-08-09T11:48:27.017Z,35.67
2018-08-09T11:50:55.691Z,36.00
2018-08-09T11:53:24.308Z,36.31
2018-08-09T11:55:52.998Z,35.96
2018-08-09T11:58:21.713Z,35.52
2018-08-09T12:00:50.488Z,35.83
2018-08-09T12:03:19.364Z,36.26
2018-08-09T12:05:48.029Z,36.06
2018-08-09T12:08:16.701Z,36.34
2018-08-09T12:10:45.359Z,36.23
2018-08-09T12:13:14.190Z,36.09
2018-08-09T12:15:43.023Z,35.93
2018-08-09T12:18:11.713Z,35.72
2018-08-09T12:20:40.436Z,35.55
2018-08-09T12:23:09.079Z,35.81
2018-08-09T12:25:37.767Z,35.58
2018-08-09T12:28:06.420Z,35.16
2018-08-09T12:30:35.112Z,34.94
2018-08-09T12:33:03.794Z,35.04
2018-08-09T12:35:32.470Z,35.15
2018-08-09T12:38:01.172Z,35.35
2018-08-09T12:40:29.824Z,35.00
2018-08-09T12:42:58.809Z,34.86
2018-08-09T12:45:27.563Z,35.19
2018-08-09T12:47:56.190Z,35.67
2018-08-09T12:50:25.068Z,34.35
2018-08-09T12:52:53.789Z,34.25
2018-08-09T12:55:23.226Z,33.53
2018-08-09T12:57:51.930Z,33.14
2018-08-09T13:00:20.607Z,33.31
2018-08-09T13:02:49.302Z,33.48
2018-08-09T13:05:17.956Z,33.63
2018-08-09T13:07:46.655Z,33.46
2018-08-09T13:10:15.518Z,33.79
2018-08-09T13:12:44.178Z,33.86
2018-08-09T13:15:13.670Z,34.25
2018-08-09T13:17:43.311Z,34.25
2018-08-09T13:20:14.239Z,34.32
2018-08-09T13:22:43.164Z,34.54
2018-08-09T13:25:11.793Z,34.96
2018-08-09T13:27:40.600Z,35.20
2018-08-09T13:30:12.084Z,35.10
2018-08-09T13:32:41.253Z,35.14
2018-08-09T13:35:10.265Z,34.81
2018-08-09T13:37:39.165Z,34.47
2018-08-09T13:40:08.931Z,34.29
2018-08-09T13:42:37.955Z,34.79
2018-08-09T13:45:09.071Z,35.31
2018-08-09T13:47:37.823Z,35.35
2018-08-09T13:50:07.197Z,35.40
2018-08-09T13:52:35.876Z,34.91
2018-08-09T13:55:05.527Z,34.96
2018-08-09T13:57:34.479Z,34.85
2018-08-09T14:00:03.200Z,34.99
2018-08-09T14:02:31.956Z,34.91
2018-08-09T14:05:00.624Z,34.71
2018-08-09T14:07:29.337Z,34.37
2018-08-09T14:09:58.719Z,34.48
2018-08-09T14:12:27.671Z,34.71
2018-08-09T14:14:56.403Z,34.88
2018-08-09T14:17:25.531Z,34.79
2018-08-09T14:19:54.242Z,34.71
2018-08-09T14:22:22.933Z,34.51
2018-08-09T14:24:51.799Z,34.11
2018-08-09T14:27:20.465Z,34.06
2018-08-09T14:29:49.654Z,34.35
2018-08-09T14:32:18.384Z,34.44
2018-08-09T14:34:47.192Z,34.39
2018-08-09T14:37:16.084Z,34.45
2018-08-09T14:39:45.438Z,34.31
2018-08-09T14:42:14.181Z,33.92
2018-08-09T14:44:42.812Z,33.90
2018-08-09T14:47:11.539Z,33.86
2018-08-09T14:49:40.225Z,34.05
2018-08-09T14:52:09.106Z,33.68
2018-08-09T14:54:37.790Z,33.42
2018-08-09T14:57:06.469Z,33.75
2018-08-09T14:59:35.133Z,33.55
2018-08-09T15:02:03.864Z,33.41
2018-08-09T15:04:32.532Z,33.44
2018-08-09T15:07:01.192Z,33.56
2018-08-09T15:09:29.853Z,33.40
2018-08-09T15:12:00.013Z,33.04
2018-08-09T15:14:28.764Z,33.12
2018-08-09T15:16:57.461Z,33.04
2018-08-09T15:19:26.123Z,32.91
2018-08-09T15:21:54.793Z,32.81
2018-08-09T15:24:23.804Z,32.60
2018-08-09T15:26:52.533Z,32.84
2018-08-09T15:29:21.254Z,32.62
2018-08-09T15:31:49.911Z,32.45
2018-08-09T15:34:18.768Z,32.41
2018-08-09T15:36:47.460Z,32.47
2018-08-09T15:39:16.167Z,32.15
2018-08-09T15:41:45.035Z,32.14
2018-08-09T15:44:14.233Z,32.19
2018-08-09T15:46:42.912Z,32.17
2018-08-09T15:49:11.605Z,31.90
2018-08-09T15:51:40.492Z,31.90
2018-08-09T15:54:09.186Z,31.88
2018-08-09T15:56:37.916Z,31.69
2018-08-09T15:59:06.584Z,31.51
2018-08-09T16:01:35.248Z,31.34
2018-08-09T16:04:03.897Z,31.14
2018-08-09T16:06:32.580Z,31.08
2018-08-09T16:09:01.272Z,31.06
2018-08-09T16:11:29.941Z,31.12
2018-08-09T16:13:59.125Z,30.91
2018-08-09T16:16:27.809Z,30.82
2018-08-09T16:18:56.443Z,30.82
2018-08-09T16:21:25.068Z,30.52
2018-08-09T16:23:53.804Z,30.52
2018-08-09T16:26:22.444Z,30.51
2018-08-09T16:28:51.143Z,30.45
2018-08-09T16:31:19.884Z,30.18
2018-08-09T16:33:48.538Z,30.19
2018-08-09T16:36:17.212Z,30.17
2018-08-09T16:38:45.892Z,30.04
2018-08-09T16:41:14.560Z,29.88
2018-08-09T16:43:43.213Z,30.19
2018-08-09T16:46:11.907Z,29.94
2018-08-09T16:48:40.572Z,29.89
2018-08-09T16:51:09.260Z,29.64
2018-08-09T16:53:37.964Z,29.66
2018-08-09T16:56:06.784Z,29.41
2018-08-09T16:58:35.463Z,29.42
2018-08-09T17:01:04.233Z,29.34
2018-08-09T17:03:32.876Z,29.34
2018-08-09T17:06:01.523Z,29.31
2018-08-09T17:08:30.241Z,29.37
2018-08-09T17:10:58.922Z,29.32
2018-08-09T17:13:27.613Z,29.23
2018-08-09T17:15:56.322Z,29.21
2018-08-09T17:18:25.053Z,29.23
2018-08-09T17:20:53.780Z,29.22
2018-08-09T17:23:22.478Z,29.03
2018-08-09T17:25:51.168Z,29.09
2018-08-09T17:28:19.836Z,29.05
2018-08-09T17:30:48.542Z,28.92
2018-08-09T17:33:17.218Z,28.82
2018-08-09T17:35:45.893Z,28.59
2018-08-09T17:38:14.544Z,28.34
2018-08-09T17:40:43.265Z,28.44
2018-08-09T17:43:11.893Z,28.48
2018-08-09T17:45:40.607Z,28.24
2018-08-09T17:48:09.252Z,28.28
2018-08-09T17:50:37.931Z,28.09
2018-08-09T17:53:08.000Z,28.13
2018-08-09T17:55:36.727Z,27.99
2018-08-09T17:58:05.496Z,28.04
2018-08-09T18:00:35.148Z,27.67
2018-08-09T18:03:03.892Z,27.50
2018-08-09T18:05:32.528Z,27.32
2018-08-09T18:08:01.566Z,27.32
2018-08-09T18:10:32.224Z,27.07
2018-08-09T18:13:00.996Z,26.97
2018-08-09T18:15:30.348Z,26.96
2018-08-09T18:17:59.760Z,27.00
2018-08-09T18:20:31.133Z,26.94
2018-08-09T18:23:01.294Z,26.97
2018-08-09T18:25:30.327Z,26.81
2018-08-09T18:27:59.074Z,26.79
2018-08-09T18:30:28.445Z,26.60
2018-08-09T18:32:57.175Z,26.56
2018-08-09T18:35:25.841Z,26.55
2018-08-09T18:37:54.543Z,26.55
2018-08-09T18:40:25.025Z,26.50
2018-08-09T18:42:53.779Z,26.37
2018-08-09T18:45:22.675Z,26.37
2018-08-09T18:47:51.617Z,26.35
2018-08-09T18:50:23.389Z,26.30
2018-08-09T18:52:54.732Z,26.30
2018-08-09T18:55:23.799Z,26.27
2018-08-09T18:57:52.648Z,26.31
2018-08-09T19:00:22.621Z,26.20
2018-08-09T19:02:52.574Z,26.16
2018-08-09T19:05:21.801Z,26.22
2018-08-09T19:07:50.518Z,26.03
2018-08-09T19:10:21.035Z,25.99
2018-08-09T19:12:49.720Z,26.15
2018-08-09T19:15:18.791Z,26.36
2018-08-09T19:17:47.457Z,26.11
2018-08-09T19:20:26.892Z,26.06
2018-08-09T19:22:55.765Z,26.06
2018-08-09T19:25:24.439Z,25.93
2018-08-09T19:27:53.128Z,25.92
2018-08-09T19:30:23.475Z,25.95
2018-08-09T19:32:52.299Z,26.03
2018-08-09T19:35:21.669Z,26.24
2018-08-09T19:37:50.471Z,25.98
2018-08-09T19:40:21.327Z,25.91
2018-08-09T19:42:50.023Z,25.56
2018-08-09T19:45:19.313Z,25.14
2018-08-09T19:47:48.056Z,24.01
2018-08-09T19:50:18.768Z,23.01
2018-08-09T19:52:47.560Z,22.56
2018-08-09T19:55:18.752Z,22.21
2018-08-09T19:57:48.526Z,21.99
2018-08-09T20:00:19.513Z,21.91
2018-08-09T20:02:48.941Z,21.81
2018-08-09T20:05:17.633Z,21.67
2018-08-09T20:07:46.574Z,21.68
2018-08-09T20:10:16.080Z,21.55
2018-08-09T20:12:45.691Z,21.61
2018-08-09T20:15:17.668Z,21.58
2018-08-09T20:17:46.812Z,21.47
2018-08-09T20:20:16.988Z,21.61
2018-08-09T20:22:46.227Z,21.46
2018-08-09T20:25:15.377Z,21.48
2018-08-09T20:27:44.603Z,21.54
2018-08-09T20:30:15.677Z,21.64
2018-08-09T20:32:44.858Z,21.74
2018-08-09T20:35:15.180Z,21.73
2018-08-09T20:37:45.008Z,21.51
2018-08-09T20:40:14.573Z,21.52
2018-08-09T20:42:43.983Z,21.60
2018-08-09T20:45:15.153Z,21.63
2018-08-09T20:47:43.876Z,21.55
2018-08-09T20:50:15.118Z,21.51
2018-08-09T20:52:44.828Z,21.62
2018-08-09T20:55:13.803Z,21.70
2018-08-09T20:57:46.309Z,21.74
2018-08-09T21:00:19.347Z,21.68
2018-08-09T21:02:49.232Z,21.70
2018-08-09T21:05:19.299Z,21.67
2018-08-09T21:08:27.022Z,21.54
2018-08-09T21:10:55.688Z,21.46
2018-08-09T21:13:24.364Z,21.35
2018-08-09T21:15:53.038Z,21.30
2018-08-09T21:18:21.808Z,21.32
2018-08-09T21:20:50.452Z,21.20
2018-08-09T21:23:19.181Z,21.18
2018-08-09T21:25:47.812Z,21.17
2018-08-09T21:28:16.476Z,21.14
2018-08-09T21:30:45.167Z,21.14
2018-08-09T21:33:13.879Z,21.10
2018-08-09T21:35:50.811Z,21.19
2018-08-09T21:38:20.983Z,21.31
2018-08-09T21:40:49.680Z,21.25
2018-08-09T21:43:20.410Z,21.29
2018-08-09T21:45:49.795Z,21.39
2018-08-09T21:48:18.620Z,21.35
2018-08-09T21:50:47.428Z,21.38
2018-08-09T21:53:17.677Z,21.44
2018-08-09T21:55:46.928Z,21.49
2018-08-09T21:58:16.107Z,21.50
2018-08-09T22:00:54.242Z,21.55
2018-08-09T22:03:25.251Z,21.54
2018-08-09T22:05:59.322Z,21.58
2018-08-09T22:08:33.316Z,21.55
2018-08-09T22:11:07.584Z,21.59
2018-08-09T22:13:41.544Z,21.65
2018-08-09T22:16:15.501Z,21.59
2018-08-09T22:18:49.564Z,21.57
2018-08-09T22:21:23.608Z,21.62
2018-08-09T22:23:52.308Z,21.67
2018-08-09T22:26:21.162Z,21.65
2018-08-09T22:28:50.507Z,21.68
2018-08-09T22:31:19.340Z,21.68
2018-08-09T22:33:48.483Z,21.67
2018-08-09T22:36:18.180Z,21.70
2018-08-09T22:38:46.893Z,21.64
2018-08-09T22:41:15.568Z,21.73
2018-08-09T22:43:44.344Z,21.66
2018-08-09T22:46:13.101Z,21.78
2018-08-09T22:48:42.523Z,21.87
2018-08-09T22:51:11.273Z,21.77
2018-08-09T22:53:39.980Z,21.78
2018-08-09T22:56:08.692Z,21.81
2018-08-09T22:58:37.400Z,21.78
2018-08-09T23:01:06.081Z,21.64
2018-08-09T23:03:34.791Z,21.74
2018-08-09T23:06:03.499Z,21.58
2018-08-09T23:08:32.179Z,21.59
2018-08-09T23:11:00.873Z,21.47
2018-08-09T23:13:29.520Z,21.52
2018-08-09T23:15:58.225Z,21.38
2018-08-09T23:18:26.935Z,21.48
2018-08-09T23:20:55.598Z,21.50
2018-08-09T23:23:24.415Z,21.43
2018-08-09T23:25:53.078Z,21.40
2018-08-09T23:28:21.779Z,21.44
2018-08-09T23:30:50.433Z,21.46
2018-08-09T23:33:22.065Z,21.48
2018-08-09T23:35:50.737Z,21.45
2018-08-09T23:38:19.388Z,21.35
2018-08-09T23:40:48.127Z,21.37
2018-08-09T23:43:16.796Z,21.34
2018-08-09T23:45:45.487Z,21.35
2018-08-09T23:48:14.145Z,21.39
2018-08-09T23:50:42.823Z,21.36
2018-08-09T23:53:11.524Z,21.40
2018-08-09T23:55:46.496Z,21.46
2018-08-09T23:58:15.559Z,21.53
